createdAt,value
2017-10-22T00:00:04.344Z,1.97
2017-10-22T00:02:31.823Z,2.40
2017-10-22T00:04:59.283Z,2.03
2017-10-22T00:07:26.751Z,2.13
2017-10-22T00:09:54.243Z,2.20
2017-10-22T00:12:21.727Z,1.77
2017-10-22T00:14:49.183Z,2.17
2017-10-22T00:17:16.657Z,2.30
2017-10-22T00:19:44.123Z,2.07
2017-10-22T00:22:11.583Z,1.80
2017-10-22T00:24:39.052Z,1.83
2017-10-22T00:27:06.527Z,2.00
2017-10-22T00:29:34.767Z,2.10
2017-10-22T00:32:03.029Z,2.50
2017-10-22T00:34:30.487Z,2.77
2017-10-22T00:36:57.964Z,2.60
2017-10-22T00:39:25.418Z,2.60
2017-10-22T00:41:52.903Z,2.40
2017-10-22T00:44:21.127Z,3.20
2017-10-22T00:46:48.605Z,1.70
2017-10-22T00:49:16.075Z,2.30
2017-10-22T00:51:43.531Z,2.20
2017-10-22T00:54:11.008Z,2.00
2017-10-22T00:56:38.471Z,1.40
2017-10-22T00:59:05.955Z,2.10
2017-10-22T01:01:33.416Z,2.67
2017-10-22T01:04:00.887Z,2.27
2017-10-22T01:06:28.355Z,2.17
2017-10-22T01:08:55.815Z,2.20
2017-10-22T01:11:23.291Z,2.07
2017-10-22T01:13:51.538Z,2.23
2017-10-22T01:16:19.007Z,2.20
2017-10-22T01:18:46.471Z,2.00
2017-10-22T01:21:13.926Z,2.00
2017-10-22T01:23:41.404Z,2.43
2017-10-22T01:26:09.635Z,2.50
2017-10-22T01:28:37.115Z,2.77
2017-10-22T01:31:04.601Z,2.60
2017-10-22T01:33:32.078Z,2.17
2017-10-22T01:35:59.539Z,2.20
2017-10-22T01:38:26.997Z,2.47
2017-10-22T01:40:54.471Z,2.20
2017-10-22T01:43:21.932Z,2.50
2017-10-22T01:45:49.387Z,2.10
2017-10-22T01:48:16.863Z,2.50
2017-10-22T01:50:44.315Z,2.87
2017-10-22T01:53:11.795Z,1.90
2017-10-22T01:55:40.019Z,2.50
2017-10-22T01:58:07.502Z,2.23
2017-10-22T02:00:34.976Z,2.70
2017-10-22T02:03:03.203Z,2.63
2017-10-22T02:05:30.672Z,2.30
2017-10-22T02:07:58.148Z,2.37
2017-10-22T02:10:27.128Z,2.43
2017-10-22T02:12:54.618Z,2.20
2017-10-22T02:15:22.852Z,2.70
2017-10-22T02:17:50.311Z,2.83
2017-10-22T02:20:17.786Z,3.10
2017-10-22T02:22:45.259Z,2.80
2017-10-22T02:25:13.507Z,2.63
2017-10-22T02:27:40.972Z,2.10
2017-10-22T02:30:08.435Z,2.67
2017-10-22T02:32:36.691Z,2.30
2017-10-22T02:35:04.175Z,2.40
2017-10-22T02:37:32.398Z,2.77
2017-10-22T02:39:59.864Z,3.33
2017-10-22T02:42:27.344Z,2.70
2017-10-22T02:44:55.568Z,2.27
2017-10-22T02:47:23.051Z,2.50
2017-10-22T02:49:50.516Z,1.93
2017-10-22T02:52:18.003Z,3.00
2017-10-22T02:54:46.248Z,3.17
2017-10-22T02:57:13.724Z,3.20
2017-10-22T02:59:41.203Z,2.53
2017-10-22T03:02:09.455Z,2.10
2017-10-22T03:04:36.912Z,2.27
2017-10-22T03:07:04.393Z,3.30
2017-10-22T03:09:32.618Z,2.30
2017-10-22T03:12:00.091Z,2.53
2017-10-22T03:14:27.567Z,2.60
2017-10-22T03:16:55.803Z,2.70
2017-10-22T03:19:23.276Z,2.70
2017-10-22T03:21:50.738Z,4.33
2017-10-22T03:24:18.220Z,2.90
2017-10-22T03:26:46.464Z,2.50
2017-10-22T03:29:13.924Z,2.07
2017-10-22T03:31:41.404Z,2.40
2017-10-22T03:34:09.627Z,2.47
2017-10-22T03:36:37.079Z,2.40
2017-10-22T03:39:04.563Z,2.30
2017-10-22T03:41:32.039Z,3.47
2017-10-22T03:43:59.522Z,3.27
2017-10-22T03:46:26.983Z,2.77
2017-10-22T03:48:54.446Z,3.17
2017-10-22T03:51:21.931Z,3.70
2017-10-22T03:53:49.409Z,3.83
2017-10-22T03:56:16.883Z,2.87
2017-10-22T03:58:45.107Z,2.70
2017-10-22T04:01:12.582Z,3.53
2017-10-22T04:03:40.039Z,3.03
2017-10-22T04:06:07.499Z,3.10
2017-10-22T04:08:34.979Z,2.97
2017-10-22T04:11:02.466Z,2.90
2017-10-22T04:13:29.923Z,2.47
2017-10-22T04:15:57.382Z,2.33
2017-10-22T04:18:24.852Z,2.43
2017-10-22T04:20:52.329Z,2.70
2017-10-22T04:23:19.795Z,2.73
2017-10-22T04:25:47.251Z,2.33
2017-10-22T04:28:14.734Z,2.23
2017-10-22T04:30:43.704Z,2.70
2017-10-22T04:33:11.165Z,2.37
2017-10-22T04:35:38.633Z,3.33
2017-10-22T04:38:07.618Z,2.53
2017-10-22T04:40:36.575Z,2.20
2017-10-22T04:43:04.039Z,1.57
2017-10-22T04:45:31.527Z,3.60
2017-10-22T04:47:59.748Z,1.93
2017-10-22T04:50:27.219Z,2.33
2017-10-22T04:52:54.672Z,3.10
2017-10-22T04:55:22.135Z,2.60
2017-10-22T04:57:49.599Z,2.07
2017-10-22T05:00:17.051Z,1.87
2017-10-22T05:02:44.507Z,2.00
2017-10-22T05:05:11.984Z,2.57
2017-10-22T05:07:39.435Z,2.13
2017-10-22T05:10:06.915Z,2.47
2017-10-22T05:12:34.367Z,2.23
2017-10-22T05:15:01.837Z,2.80
2017-10-22T05:17:30.070Z,2.30
2017-10-22T05:19:57.533Z,2.83
2017-10-22T05:22:24.995Z,2.37
2017-10-22T05:24:52.467Z,2.00
2017-10-22T05:27:20.710Z,2.13
2017-10-22T05:29:48.196Z,2.10
2017-10-22T05:32:15.646Z,2.40
2017-10-22T05:34:43.102Z,1.70
2017-10-22T05:37:10.567Z,2.20
2017-10-22T05:39:38.783Z,2.30
2017-10-22T05:42:06.256Z,1.90
2017-10-22T05:44:33.714Z,3.20
2017-10-22T05:47:01.179Z,1.90
2017-10-22T05:49:28.650Z,2.20
2017-10-22T05:51:56.118Z,2.37
2017-10-22T05:54:25.099Z,2.03
2017-10-22T05:56:52.620Z,2.40
2017-10-22T05:59:20.082Z,2.57
2017-10-22T06:01:47.549Z,2.27
2017-10-22T06:04:14.995Z,2.17
2017-10-22T06:06:42.467Z,2.10
2017-10-22T06:09:09.927Z,2.40
2017-10-22T06:11:37.417Z,2.53
2017-10-22T06:14:05.639Z,2.40
2017-10-22T06:16:33.103Z,2.43
2017-10-22T06:19:00.571Z,3.00
2017-10-22T06:21:28.032Z,2.30
2017-10-22T06:23:55.827Z,2.30
2017-10-22T06:26:24.067Z,1.90
2017-10-22T06:28:51.519Z,2.17
2017-10-22T06:31:18.994Z,1.80
2017-10-22T06:33:46.460Z,1.80
2017-10-22T06:36:13.939Z,2.00
2017-10-22T06:38:42.184Z,2.40
2017-10-22T06:41:09.650Z,2.93
2017-10-22T06:43:37.107Z,1.90
2017-10-22T06:46:04.563Z,2.27
2017-10-22T06:48:32.036Z,2.27
2017-10-22T06:51:00.260Z,2.60
2017-10-22T06:53:27.714Z,2.77
2017-10-22T06:55:55.188Z,2.37
2017-10-22T06:58:22.660Z,2.17
2017-10-22T07:00:50.116Z,2.30
2017-10-22T07:03:17.579Z,2.77
2017-10-22T07:05:45.819Z,2.47
2017-10-22T07:08:13.277Z,2.50
2017-10-22T07:10:40.756Z,3.60
2017-10-22T07:13:08.207Z,2.10
2017-10-22T07:15:35.681Z,2.43
2017-10-22T07:18:04.651Z,2.37
2017-10-22T07:20:32.113Z,2.10
2017-10-22T07:22:59.600Z,2.47
2017-10-22T07:25:27.826Z,2.30
2017-10-22T07:27:55.269Z,2.90
2017-10-22T07:30:23.176Z,2.53
2017-10-22T07:32:50.630Z,3.00
2017-10-22T07:35:18.079Z,1.93
2017-10-22T07:37:46.332Z,2.20
2017-10-22T07:40:13.839Z,2.27
2017-10-22T07:42:42.083Z,2.40
2017-10-22T07:45:09.547Z,3.10
2017-10-22T07:47:37.011Z,2.23
2017-10-22T07:50:04.484Z,2.43
2017-10-22T07:52:32.709Z,2.80
2017-10-22T07:55:00.188Z,2.57
2017-10-22T07:57:27.704Z,2.77
2017-10-22T07:59:55.159Z,2.67
2017-10-22T08:02:22.625Z,2.67
2017-10-22T08:04:50.108Z,2.80
2017-10-22T08:07:17.583Z,2.57
2017-10-22T08:09:46.554Z,2.17
2017-10-22T08:12:14.160Z,2.30
2017-10-22T08:14:42.411Z,2.43
2017-10-22T08:17:09.863Z,2.70
2017-10-22T08:19:37.332Z,2.43
2017-10-22T08:22:05.572Z,2.30
2017-10-22T08:24:33.029Z,1.93
2017-10-22T08:27:00.507Z,2.60
2017-10-22T08:29:28.770Z,2.07
2017-10-22T08:31:56.219Z,2.20
2017-10-22T08:34:23.709Z,1.90
2017-10-22T08:36:51.932Z,2.33
2017-10-22T08:39:19.415Z,2.57
2017-10-22T08:41:47.007Z,3.30
2017-10-22T08:44:15.243Z,1.63
2017-10-22T08:46:42.737Z,2.17
2017-10-22T08:49:10.972Z,2.40
2017-10-22T08:51:38.462Z,2.23
2017-10-22T08:54:06.700Z,2.90
2017-10-22T08:56:34.167Z,1.90
2017-10-22T08:59:01.626Z,1.93
2017-10-22T09:01:30.625Z,2.57
2017-10-22T09:03:58.095Z,2.20
2017-10-22T09:06:26.331Z,2.30
2017-10-22T09:08:54.115Z,2.30
2017-10-22T09:11:21.580Z,2.33
2017-10-22T09:13:49.818Z,2.37
2017-10-22T09:16:17.299Z,2.30
2017-10-22T09:18:45.536Z,2.63
2017-10-22T09:21:13.015Z,2.13
2017-10-22T09:23:40.511Z,2.30
2017-10-22T09:26:07.956Z,2.40
2017-10-22T09:28:36.191Z,2.43
2017-10-22T09:31:03.656Z,2.83
2017-10-22T09:33:31.135Z,2.00
2017-10-22T09:35:59.384Z,2.93
2017-10-22T09:38:26.863Z,2.07
2017-10-22T09:40:54.319Z,2.50
2017-10-22T09:43:21.791Z,2.20
2017-10-22T09:45:50.020Z,2.87
2017-10-22T09:48:17.500Z,2.77
2017-10-22T09:50:44.963Z,2.60
2017-10-22T09:53:13.948Z,2.90
2017-10-22T09:55:41.410Z,3.00
2017-10-22T09:58:08.885Z,2.93
2017-10-22T10:00:36.366Z,3.07
2017-10-22T10:03:03.840Z,3.50
2017-10-22T10:05:31.415Z,3.03
2017-10-22T10:07:58.883Z,3.03
2017-10-22T10:10:26.361Z,3.00
2017-10-22T10:12:53.819Z,3.73
2017-10-22T10:15:21.284Z,2.93
2017-10-22T10:17:48.750Z,3.00
2017-10-22T10:20:17.044Z,2.40
2017-10-22T10:22:44.582Z,2.60
2017-10-22T10:25:12.820Z,2.63
2017-10-22T10:27:40.300Z,2.70
2017-10-22T10:30:07.760Z,3.37
2017-10-22T10:32:35.247Z,3.43
2017-10-22T10:35:02.696Z,2.70
2017-10-22T10:37:30.192Z,2.73
2017-10-22T10:39:57.660Z,3.17
2017-10-22T10:42:25.116Z,2.53
2017-10-22T10:44:52.590Z,3.07
2017-10-22T10:47:20.061Z,3.33
2017-10-22T10:49:48.307Z,3.00
2017-10-22T10:52:15.799Z,2.63
2017-10-22T10:54:44.047Z,3.20
2017-10-22T10:57:11.527Z,3.47
2017-10-22T10:59:39.765Z,2.97
2017-10-22T11:04:29.543Z,3.57
2017-10-22T11:06:57.031Z,4.50
2017-10-22T11:09:24.536Z,3.47
2017-10-22T11:11:52.027Z,3.20
2017-10-22T11:14:19.493Z,3.10
2017-10-22T11:16:46.987Z,3.90
2017-10-22T11:19:15.219Z,4.20
2017-10-22T11:21:42.711Z,3.33
2017-10-22T11:24:10.947Z,3.30
2017-10-22T11:26:38.482Z,3.60
2017-10-22T11:29:06.847Z,3.83
2017-10-22T11:31:34.346Z,3.20
2017-10-22T11:34:01.815Z,3.90
2017-10-22T11:36:29.288Z,3.90
2017-10-22T11:38:57.537Z,4.30
2017-10-22T11:41:25.009Z,4.60
2017-10-22T11:43:52.482Z,4.53
2017-10-22T11:46:20.739Z,4.60
2017-10-22T11:48:48.209Z,4.60
2017-10-22T11:51:16.453Z,3.77
2017-10-22T11:53:43.911Z,4.27
2017-10-22T11:56:11.395Z,4.47
2017-10-22T11:58:39.614Z,4.27
2017-10-22T12:01:07.079Z,4.47
2017-10-22T12:03:34.573Z,3.90
2017-10-22T12:06:02.043Z,3.83
2017-10-22T12:08:30.262Z,3.90
2017-10-22T12:10:57.753Z,3.70
2017-10-22T12:13:25.248Z,3.90
2017-10-22T12:15:53.510Z,3.90
2017-10-22T12:18:21.747Z,3.30
2017-10-22T12:20:49.233Z,3.60
2017-10-22T12:23:16.723Z,3.60
2017-10-22T12:25:44.184Z,3.53
2017-10-22T12:28:11.688Z,3.30
2017-10-22T12:30:40.656Z,3.40
2017-10-22T12:33:08.138Z,3.33
2017-10-22T12:35:35.614Z,2.83
2017-10-22T12:38:03.841Z,3.00
2017-10-22T12:40:31.323Z,3.27
2017-10-22T12:42:58.786Z,3.30
2017-10-22T12:45:26.293Z,3.23
2017-10-22T12:47:53.755Z,3.03
2017-10-22T12:50:21.236Z,3.50
2017-10-22T12:52:48.756Z,3.13
2017-10-22T12:55:16.229Z,2.80
2017-10-22T12:57:43.715Z,2.83
2017-10-22T13:00:11.166Z,3.47
2017-10-22T13:02:38.637Z,3.10
2017-10-22T13:05:06.107Z,3.20
2017-10-22T13:07:34.347Z,3.10
2017-10-22T13:10:01.836Z,3.30
2017-10-22T13:12:29.333Z,2.77
2017-10-22T13:14:56.801Z,3.20
2017-10-22T13:17:24.280Z,3.47
2017-10-22T13:19:51.743Z,3.57
2017-10-22T13:22:20.736Z,4.23
2017-10-22T13:24:48.186Z,4.03
2017-10-22T13:27:15.673Z,4.43
2017-10-22T13:29:43.895Z,4.63
2017-10-22T13:32:11.375Z,4.50
2017-10-22T13:34:38.864Z,4.40
2017-10-22T13:37:07.095Z,4.87
2017-10-22T13:39:34.579Z,4.80
2017-10-22T13:42:02.061Z,4.10
2017-10-22T13:44:30.283Z,4.73
2017-10-22T13:46:57.771Z,4.37
2017-10-22T13:49:26.001Z,4.60
2017-10-22T13:51:53.463Z,4.10
2017-10-22T13:54:20.943Z,3.97
2017-10-22T13:56:48.411Z,5.00
2017-10-22T13:59:15.894Z,3.90
2017-10-22T14:01:44.120Z,4.80
2017-10-22T14:04:11.598Z,4.83
2017-10-22T14:06:39.068Z,4.00
2017-10-22T14:09:06.544Z,4.03
2017-10-22T14:11:34.040Z,4.40
2017-10-22T14:14:01.491Z,3.80
2017-10-22T14:16:28.967Z,4.93
2017-10-22T14:18:56.443Z,4.40
2017-10-22T14:21:23.915Z,4.30
2017-10-22T14:23:52.155Z,4.00
2017-10-22T14:26:19.627Z,4.60
2017-10-22T14:28:47.124Z,4.60
2017-10-22T14:31:14.580Z,4.50
2017-10-22T14:33:42.076Z,4.70
2017-10-22T14:36:09.552Z,5.33
2017-10-22T14:38:37.777Z,4.30
2017-10-22T14:41:05.264Z,4.87
2017-10-22T14:43:50.089Z,4.53
2017-10-22T14:46:17.545Z,5.07
2017-10-22T14:48:45.025Z,5.00
2017-10-22T14:51:12.507Z,4.47
2017-10-22T14:53:39.975Z,4.83
2017-10-22T14:56:08.207Z,4.93
2017-10-22T14:58:35.683Z,5.70
2017-10-22T15:01:03.149Z,4.97
2017-10-22T15:03:30.631Z,5.50
2017-10-22T15:05:58.895Z,4.87
2017-10-22T15:08:26.366Z,5.10
2017-10-22T15:10:54.601Z,5.33
2017-10-22T15:13:22.087Z,4.60
2017-10-22T15:15:50.339Z,4.90
2017-10-22T15:18:17.822Z,6.23
2017-10-22T15:20:46.063Z,5.00
2017-10-22T15:23:13.532Z,4.90
2017-10-22T15:25:41.011Z,5.40
2017-10-22T15:28:09.264Z,5.30
2017-10-22T15:30:36.747Z,5.13
2017-10-22T15:33:05.011Z,5.03
2017-10-22T15:35:32.487Z,5.30
2017-10-22T15:38:00.731Z,5.07
2017-10-22T15:40:28.201Z,4.47
2017-10-22T15:42:55.687Z,4.00
2017-10-22T15:45:23.144Z,4.40
2017-10-22T15:47:50.608Z,4.30
2017-10-22T15:50:18.095Z,4.10
2017-10-22T15:52:45.564Z,2.90
2017-10-22T15:55:13.043Z,3.33
2017-10-22T15:57:40.500Z,4.27
2017-10-22T16:00:07.980Z,3.30
2017-10-22T16:02:35.459Z,3.60
2017-10-22T16:05:02.924Z,3.63
2017-10-22T16:07:30.483Z,3.63
2017-10-22T16:09:57.935Z,4.20
2017-10-22T16:12:25.408Z,4.10
2017-10-22T16:14:52.882Z,3.83
2017-10-22T16:17:20.359Z,3.93
2017-10-22T16:19:48.579Z,3.03
2017-10-22T16:22:16.054Z,4.47
2017-10-22T16:24:43.513Z,4.00
2017-10-22T16:27:10.976Z,3.50
2017-10-22T16:29:38.449Z,3.63
2017-10-22T16:32:05.907Z,3.17
2017-10-22T16:34:33.696Z,3.20
2017-10-22T16:37:01.179Z,2.83
2017-10-22T16:39:28.634Z,2.93
2017-10-22T16:41:56.118Z,3.23
2017-10-22T16:44:23.577Z,4.10
2017-10-22T16:46:51.032Z,3.03
2017-10-22T16:49:18.507Z,3.10
2017-10-22T16:51:45.984Z,2.90
2017-10-22T16:54:14.234Z,2.70
2017-10-22T16:56:41.699Z,3.00
2017-10-22T16:59:09.197Z,3.73
2017-10-22T17:01:36.659Z,2.70
2017-10-22T17:04:04.139Z,3.13
2017-10-22T17:06:31.620Z,2.73
2017-10-22T17:08:59.113Z,3.80
2017-10-22T17:11:26.579Z,2.80
2017-10-22T17:13:54.052Z,3.00
2017-10-22T17:16:21.540Z,3.20
2017-10-22T17:18:49.008Z,3.47
2017-10-22T17:21:17.292Z,3.20
2017-10-22T17:23:45.515Z,3.17
2017-10-22T17:26:12.984Z,3.00
2017-10-22T17:28:40.460Z,3.13
2017-10-22T17:31:08.716Z,2.80
2017-10-22T17:33:36.176Z,2.83
2017-10-22T17:36:03.651Z,3.23
2017-10-22T17:38:31.892Z,3.30
2017-10-22T17:40:59.362Z,3.07
2017-10-22T17:43:26.820Z,2.53
2017-10-22T17:45:54.299Z,3.03
2017-10-22T17:48:21.752Z,3.10
2017-10-22T17:50:50.005Z,3.10
2017-10-22T17:53:17.464Z,3.30
2017-10-22T17:55:44.926Z,3.33
2017-10-22T17:58:12.404Z,3.50
2017-10-22T18:00:39.870Z,3.40
2017-10-22T18:03:08.124Z,3.27
2017-10-22T18:05:37.102Z,2.97
2017-10-22T18:08:04.584Z,3.50
2017-10-22T18:10:32.831Z,3.30
2017-10-22T18:13:00.302Z,3.50
2017-10-22T18:15:28.529Z,3.27
2017-10-22T18:17:56.010Z,3.83
2017-10-22T18:20:23.485Z,3.50
2017-10-22T18:22:50.974Z,3.23
2017-10-22T18:25:19.207Z,3.80
2017-10-22T18:27:46.699Z,2.93
2017-10-22T18:30:14.943Z,3.50
2017-10-22T18:32:42.403Z,3.40
2017-10-22T18:35:09.888Z,3.40
2017-10-22T18:37:38.132Z,4.13
2017-10-22T18:40:05.608Z,3.63
2017-10-22T18:42:33.104Z,3.60
2017-10-22T18:45:00.599Z,3.37
2017-10-22T18:47:28.062Z,4.53
2017-10-22T18:49:55.536Z,3.60
2017-10-22T18:52:23.029Z,4.33
2017-10-22T18:54:50.511Z,3.90
2017-10-22T18:57:17.977Z,3.93
2017-10-22T18:59:45.446Z,4.20
2017-10-22T19:02:12.940Z,4.30
2017-10-22T19:04:41.160Z,3.87
2017-10-22T19:07:08.656Z,4.07
2017-10-22T19:09:36.905Z,4.97
2017-10-22T19:12:04.362Z,3.50
2017-10-22T19:14:31.867Z,3.67
2017-10-22T19:17:00.099Z,3.63
2017-10-22T19:19:27.568Z,4.13
2017-10-22T19:21:55.046Z,3.90
2017-10-22T19:24:23.300Z,4.27
2017-10-22T19:26:50.779Z,3.50
2017-10-22T19:29:18.244Z,3.23
2017-10-22T19:31:45.731Z,3.67
2017-10-22T19:34:13.194Z,3.20
2017-10-22T19:36:40.682Z,4.73
2017-10-22T19:39:08.143Z,3.60
2017-10-22T19:41:35.628Z,3.10
2017-10-22T19:44:03.097Z,3.70
2017-10-22T19:46:30.567Z,4.80
2017-10-22T19:48:58.067Z,3.77
2017-10-22T19:51:25.524Z,3.10
2017-10-22T19:53:53.000Z,2.97
2017-10-22T19:56:21.241Z,3.10
2017-10-22T19:58:48.717Z,2.97
2017-10-22T20:01:16.185Z,3.40
2017-10-22T20:03:44.422Z,3.60
2017-10-22T20:06:11.913Z,5.43
2017-10-22T20:08:40.484Z,3.27
2017-10-22T20:11:08.160Z,3.30
2017-10-22T20:13:36.381Z,3.73
2017-10-22T20:16:03.887Z,3.17
2017-10-22T20:18:32.124Z,3.17
2017-10-22T20:20:59.604Z,3.60
2017-10-22T20:23:27.087Z,3.17
2017-10-22T20:25:54.547Z,3.17
2017-10-22T20:28:22.011Z,3.90
2017-10-22T20:30:49.495Z,2.93
2017-10-22T20:33:16.971Z,4.27
2017-10-22T20:35:44.442Z,3.73
2017-10-22T20:38:11.907Z,3.50
2017-10-22T20:40:40.169Z,3.00
2017-10-22T20:43:07.644Z,3.27
2017-10-22T20:45:35.875Z,3.43
2017-10-22T20:48:03.365Z,3.90
2017-10-22T20:50:30.829Z,3.43
2017-10-22T20:52:59.084Z,3.33
2017-10-22T20:55:26.551Z,3.13
2017-10-22T20:57:54.022Z,3.10
2017-10-22T21:00:22.267Z,3.23
2017-10-22T21:02:50.497Z,2.90
2017-10-22T21:05:17.960Z,2.90
2017-10-22T21:07:45.443Z,3.97
2017-10-22T21:10:12.890Z,3.40
2017-10-22T21:12:40.342Z,2.60
2017-10-22T21:15:07.812Z,2.40
2017-10-22T21:17:35.286Z,2.67
2017-10-22T21:20:02.754Z,2.90
2017-10-22T21:22:30.216Z,3.57
2017-10-22T21:24:58.471Z,2.57
2017-10-22T21:27:25.922Z,2.87
2017-10-22T21:29:53.372Z,3.07
2017-10-22T21:32:20.864Z,2.70
2017-10-22T21:34:48.316Z,3.00
2017-10-22T21:37:16.560Z,3.07
2017-10-22T21:39:44.017Z,2.63
2017-10-22T21:42:11.518Z,2.83
2017-10-22T21:44:39.731Z,3.00
2017-10-22T21:47:07.195Z,3.93
2017-10-22T21:49:34.675Z,3.30
2017-10-22T21:52:02.132Z,2.40
2017-10-22T21:54:29.605Z,2.40
2017-10-22T21:56:57.844Z,2.57
2017-10-22T21:59:25.303Z,3.17
2017-10-22T22:01:52.762Z,3.20
2017-10-22T22:04:20.239Z,3.00
2017-10-22T22:06:47.707Z,3.40
2017-10-22T22:09:15.956Z,4.13
2017-10-22T22:11:43.440Z,3.27
2017-10-22T22:14:10.908Z,3.90
2017-10-22T22:16:39.147Z,3.70
2017-10-22T22:19:06.612Z,3.80
2017-10-22T22:21:34.074Z,3.33
2017-10-22T22:24:01.529Z,3.63
2017-10-22T22:26:29.308Z,2.93
2017-10-22T22:28:57.531Z,2.77
2017-10-22T22:31:25.002Z,3.60
2017-10-22T22:33:52.469Z,3.27
2017-10-22T22:36:19.967Z,3.27
2017-10-22T22:38:47.430Z,2.87
2017-10-22T22:41:14.907Z,3.57
2017-10-22T22:43:42.375Z,2.97
2017-10-22T22:46:09.839Z,3.20
2017-10-22T22:48:37.308Z,3.27
2017-10-22T22:51:05.536Z,3.33
2017-10-22T22:53:33.045Z,3.20
2017-10-22T22:56:00.508Z,2.57
2017-10-22T22:58:27.959Z,2.70
2017-10-22T23:00:55.455Z,3.77
2017-10-22T23:03:22.911Z,2.73
2017-10-22T23:05:50.375Z,3.50
2017-10-22T23:08:17.861Z,3.13
2017-10-22T23:10:45.327Z,3.10
2017-10-22T23:13:12.815Z,3.57
2017-10-22T23:15:41.034Z,3.50
2017-10-22T23:18:08.503Z,3.43
2017-10-22T23:20:35.978Z,3.33
2017-10-22T23:23:03.431Z,3.47
2017-10-22T23:25:30.893Z,3.43
2017-10-22T23:27:58.376Z,4.40
2017-10-22T23:30:26.620Z,3.80
2017-10-22T23:32:54.124Z,3.80
2017-10-22T23:35:21.576Z,3.17
2017-10-22T23:37:49.032Z,3.20
2017-10-22T23:40:16.505Z,3.70
2017-10-22T23:42:43.965Z,3.60
2017-10-22T23:45:11.436Z,3.97
2017-10-22T23:47:38.896Z,3.60
2017-10-22T23:50:06.368Z,2.90
2017-10-22T23:52:33.836Z,3.60
2017-10-22T23:55:02.063Z,3.20
2017-10-22T23:57:29.541Z,3.90
2017-10-22T23:59:57.011Z,4.27
